Mount Vernon, Ohio
Current Conditions -  °F | °C
As of 11:36 AM on Wednesday 26 Nov 2014 (Local Time) from K4I3 Reporting Station
Overcast Overcast  
Wind Chill: 30°   Ceiling: 2900
Heat Index: 34°   Visibility: 10mi
Dew Point: 27°   Wind: 5mph
Humidity: 75%   Direction: 40°NE
Pressure: 30.09"   Gusts: NA
Location:  40.39°N, 82.48°W
Report Text: K4I3 261636Z AUTO 04004KT 10SM OVC029 01/M03 A3009 RMK AO2
Loading
Personal Weather Stations






























Interactive Weather Map New forecast layout! Learn more

10-Day Weather Forecast

Advertisements
Track Severe Weather on mobile